Time;durP1;ratioP1;P1;durP2;ratioP2;P2;SDS_P1;SDS_P2;PMS_P1;PMS_P2;Temp;Humidity;BMP_temperature;BMP_pressure;BME280_temperature;BME280_humidity;BME280_pressure;Samples;Min_cycle;Max_cycle;Signal;HPM_P1;HPM_P2
2022/03/07 00:01:47;;;;;;;12.00;3.30;;;;;;;0.24;82.43;102879.19;5011658;28;20047;-67
2022/03/07 00:04:16;;;;;;;8.05;3.08;;;;;;;0.21;82.55;102880.00;5022797;28;20037;-67
2022/03/07 00:06:43;;;;;;;8.30;3.13;;;;;;;0.18;82.43;102884.22;5024171;28;20051;-67
2022/03/07 00:09:09;;;;;;;6.97;3.28;;;;;;;0.17;82.55;102879.84;5023500;28;20022;-67
2022/03/07 00:11:35;;;;;;;11.23;3.40;;;;;;;0.13;82.39;102887.56;5022314;28;20037;-68
2022/03/07 00:14:01;;;;;;;8.85;3.38;;;;;;;0.11;82.67;102888.38;5024357;28;20033;-67
2022/03/07 00:16:26;;;;;;;9.27;3.70;;;;;;;0.08;82.52;102891.75;5022484;28;20091;-68
2022/03/07 00:18:52;;;;;;;7.75;3.35;;;;;;;0.06;82.90;102887.34;5023870;28;20128;-68
2022/03/07 00:21:18;;;;;;;9.65;3.65;;;;;;;0.03;82.53;102887.22;5023361;28;20037;-68
2022/03/07 00:23:44;;;;;;;8.77;3.85;;;;;;;0.00;82.80;102898.47;5023235;28;20380;-68
2022/03/07 00:26:09;;;;;;;12.82;4.63;;;;;;;-0.05;82.85;102898.28;5023659;28;20036;-68
2022/03/07 00:28:35;;;;;;;9.93;3.72;;;;;;;-0.07;82.84;102899.97;5022486;28;20091;-67
2022/03/07 00:31:00;;;;;;;8.52;3.45;;;;;;;-0.10;82.87;102897.28;5022881;28;20030;-68
2022/03/07 00:33:26;;;;;;;13.65;4.20;;;;;;;-0.13;83.15;102891.97;5000456;28;20017;-67
2022/03/07 00:35:52;;;;;;;8.43;3.70;;;;;;;-0.16;82.79;102897.09;5022318;28;20044;-68
2022/03/07 00:38:17;;;;;;;11.25;3.30;;;;;;;-0.18;82.80;102903.94;5023504;28;20612;-67
2022/03/07 00:40:43;;;;;;;8.20;3.20;;;;;;;-0.21;82.85;102901.25;5023154;28;20463;-67
2022/03/07 00:43:09;;;;;;;6.82;2.97;;;;;;;-0.23;83.17;102905.53;5023109;28;20060;-67
2022/03/07 00:45:35;;;;;;;8.23;3.40;;;;;;;-0.26;82.88;102900.19;5021568;28;20373;-67
2022/03/07 00:48:00;;;;;;;5.75;3.10;;;;;;;-0.30;83.07;102905.31;5022901;28;20037;-67
2022/03/07 00:50:26;;;;;;;13.45;3.47;;;;;;;-0.33;83.17;102902.59;5021151;28;20834;-68
2022/03/07 00:52:51;;;;;;;7.18;2.80;;;;;;;-0.33;83.30;102909.53;5023400;28;20447;-68
2022/03/07 00:55:17;;;;;;;7.45;3.30;;;;;;;-0.37;83.30;102910.25;5021769;28;20454;-67
2022/03/07 00:57:42;;;;;;;6.72;3.55;;;;;;;-0.39;83.24;102911.94;5022716;28;20053;-68
2022/03/07 01:00:08;;;;;;;7.10;2.95;;;;;;;-0.42;83.04;102916.19;5020057;28;20175;-68
2022/03/07 01:02:35;;;;;;;10.18;3.42;;;;;;;-0.44;82.88;102923.06;5022372;28;20037;-67
2022/03/07 01:05:01;;;;;;;13.40;4.25;;;;;;;-0.46;82.96;102910.84;5022257;28;20040;-67
2022/03/07 01:07:27;;;;;;;9.77;3.90;;;;;;;-0.49;83.16;102913.34;5022271;28;21611;-68
2022/03/07 01:09:53;;;;;;;9.10;3.17;;;;;;;-0.50;83.21;102925.47;5022559;28;20090;-67
2022/03/07 01:12:19;;;;;;;6.05;3.45;;;;;;;-0.52;83.42;102923.63;5022701;28;20020;-67
2022/03/07 01:14:44;;;;;;;6.47;3.35;;;;;;;-0.54;83.31;102926.22;5022533;28;20136;-67
2022/03/07 01:17:10;;;;;;;8.45;3.13;;;;;;;-0.56;83.22;102918.34;5023365;28;20504;-67
2022/03/07 01:19:35;;;;;;;11.07;3.70;;;;;;;-0.59;83.39;102918.22;5022329;28;20044;-67
2022/03/07 01:22:01;;;;;;;7.53;3.35;;;;;;;-0.60;83.20;102923.41;5020334;28;20391;-67
2022/03/07 01:24:26;;;;;;;7.32;3.50;;;;;;;-0.63;83.23;102923.28;5022135;28;20035;-68
2022/03/07 01:26:52;;;;;;;6.68;3.08;;;;;;;-0.65;83.62;102920.59;5022432;28;20044;-67
2022/03/07 01:29:19;;;;;;;7.95;2.92;;;;;;;-0.67;83.41;102919.69;5022214;28;20123;-67
2022/03/07 01:31:45;;;;;;;8.32;2.90;;;;;;;-0.69;83.72;102926.56;5022138;28;20028;-66
2022/03/07 01:34:13;;;;;;;7.32;3.60;;;;;;;-0.72;83.52;102926.44;5022556;28;20380;-67
2022/03/07 01:36:38;;;;;;;8.35;3.05;;;;;;;-0.75;83.20;102916.81;5022162;28;20049;-66
2022/03/07 01:39:04;;;;;;;6.72;3.10;;;;;;;-0.76;83.67;102920.22;5021797;28;20578;-66
2022/03/07 01:41:29;;;;;;;8.02;3.00;;;;;;;-0.78;83.61;102918.41;5022408;28;20039;-66
2022/03/07 01:43:55;;;;;;;7.07;3.05;;;;;;;-0.81;83.73;102916.59;5021602;28;20631;-66
2022/03/07 01:46:20;;;;;;;8.55;3.30;;;;;;;-0.81;83.57;102916.59;5022259;28;20063;-66
2022/03/07 01:48:46;;;;;;;6.70;3.15;;;;;;;-0.84;83.76;102900.88;5022090;28;20029;-66
2022/03/07 01:51:13;;;;;;;6.50;2.80;;;;;;;-0.86;83.54;102910.34;5022219;28;20107;-67
2022/03/07 01:53:39;;;;;;;8.55;2.95;;;;;;;-0.87;83.54;102913.78;5020841;28;20025;-67
2022/03/07 01:56:06;;;;;;;8.20;3.03;;;;;;;-0.91;83.58;102910.19;5021968;28;20567;-66
2022/03/07 01:58:32;;;;;;;8.75;3.13;;;;;;;-0.92;83.48;102900.63;5022869;28;20036;-66
2022/03/07 02:00:57;;;;;;;9.95;3.55;;;;;;;-0.94;83.43;102909.19;5021913;28;20025;-66
2022/03/07 02:03:23;;;;;;;6.90;3.13;;;;;;;-0.94;83.67;102904.00;5022293;28;20100;-67
2022/03/07 02:05:48;;;;;;;8.45;3.30;;;;;;;-0.97;83.65;102896.97;5021054;28;20103;-67
2022/03/07 02:08:15;;;;;;;10.25;3.05;;;;;;;-1.01;83.46;102890.78;5020151;28;20666;-66
2022/03/07 02:10:42;;;;;;;6.30;2.97;;;;;;;-1.02;83.70;102890.72;5021643;28;20032;-66
2022/03/07 02:13:18;;;;;;;10.02;3.20;;;;;;;-1.06;83.51;102884.50;5022833;28;20044;-66
2022/03/07 02:15:43;;;;;;;8.18;2.75;;;;;;;-1.07;83.58;102880.16;5021151;28;20033;-66
2022/03/07 02:18:09;;;;;;;8.95;3.58;;;;;;;-1.08;83.47;102887.88;5020885;28;20436;-66
2022/03/07 02:20:35;;;;;;;7.30;3.10;;;;;;;-1.11;83.41;102886.97;5020837;28;20056;-66
2022/03/07 02:23:01;;;;;;;5.40;2.92;;;;;;;-1.13;83.44;102882.53;5017684;28;20033;-66
2022/03/07 02:25:26;;;;;;;8.45;3.47;;;;;;;-1.15;83.63;102882.47;5020991;28;20115;-66
2022/03/07 02:27:52;;;;;;;7.30;3.53;;;;;;;-1.16;83.62;102883.28;5021270;28;20033;-66
2022/03/07 02:30:18;;;;;;;8.82;3.58;;;;;;;-1.18;83.69;102884.06;5022374;28;20169;-66
2022/03/07 02:32:43;;;;;;;5.78;3.35;;;;;;;-1.20;83.73;102890.94;5020290;28;20032;-67
2022/03/07 02:35:13;;;;;;;5.45;3.15;;;;;;;-1.21;83.68;102894.38;5022547;28;20305;-66
2022/03/07 02:37:40;;;;;;;8.48;3.15;;;;;;;-1.25;83.76;102894.25;5021891;28;20273;-67
2022/03/07 02:40:06;;;;;;;5.97;3.17;;;;;;;-1.26;83.61;102884.69;5019355;28;20044;-66
2022/03/07 02:42:31;;;;;;;13.63;3.45;;;;;;;-1.28;83.77;102883.75;5020970;28;21785;-67
2022/03/07 02:44:57;;;;;;;5.60;2.85;;;;;;;-1.29;83.87;102881.97;5021590;28;20045;-66
2022/03/07 02:47:23;;;;;;;8.60;2.83;;;;;;;-1.30;83.90;102884.50;5021099;28;20036;-67
2022/03/07 02:49:50;;;;;;;8.43;3.38;;;;;;;-1.32;83.99;102892.25;5023078;28;20284;-67
2022/03/07 02:52:15;;;;;;;7.60;3.50;;;;;;;-1.33;83.90;102887.88;5023646;28;20029;-66
2022/03/07 02:54:41;;;;;;;7.20;3.17;;;;;;;-1.36;84.10;102885.19;5024971;28;20044;-66
2022/03/07 02:57:07;;;;;;;8.73;3.17;;;;;;;-1.36;83.93;102882.59;5024719;28;20313;-66
2022/03/07 02:59:32;;;;;;;8.82;3.40;;;;;;;-1.38;83.85;102886.81;5023746;28;20742;-66
2022/03/07 03:01:58;;;;;;;7.68;4.13;;;;;;;-1.39;83.86;102885.94;5024567;28;20044;-66
2022/03/07 03:04:23;;;;;;;4.00;3.00;;;;;;;-1.40;83.91;102883.28;5023601;28;20727;-66
2022/03/07 03:06:49;;;;;;;5.25;3.10;;;;;;;-1.42;83.90;102884.94;5024553;28;20029;-66
2022/03/07 03:09:14;;;;;;;5.63;3.35;;;;;;;-1.44;84.01;102879.69;5025162;28;20633;-66
2022/03/07 03:11:40;;;;;;;10.23;3.13;;;;;;;-1.44;84.16;102881.38;5023106;28;20039;-66
2022/03/07 03:14:06;;;;;;;5.35;2.92;;;;;;;-1.47;83.81;102887.34;5023240;28;20649;-66
2022/03/07 03:16:32;;;;;;;7.03;3.10;;;;;;;-1.49;83.80;102883.81;5023849;28;20486;-67
2022/03/07 03:18:58;;;;;;;6.55;2.95;;;;;;;-1.49;83.96;102877.75;5025604;28;20510;-67
2022/03/07 03:21:23;;;;;;;7.57;3.10;;;;;;;-1.53;84.02;102875.03;5025272;28;20108;-66
2022/03/07 03:23:49;;;;;;;6.43;2.60;;;;;;;-1.54;84.10;102875.84;5022865;28;20083;-66
2022/03/07 03:26:14;;;;;;;8.55;2.92;;;;;;;-1.55;83.94;102873.19;5023800;28;20344;-66
2022/03/07 03:28:41;;;;;;;4.90;2.90;;;;;;;-1.57;83.86;102865.34;5024798;28;20442;-66
2022/03/07 03:31:08;;;;;;;6.38;3.22;;;;;;;-1.59;84.09;102867.00;5023902;28;20030;-67
2022/03/07 03:33:35;;;;;;;6.80;2.70;;;;;;;-1.61;84.07;102860.88;5022895;28;20344;-66
2022/03/07 03:36:02;;;;;;;6.82;3.05;;;;;;;-1.62;84.12;102872.09;5029379;28;20080;-66
2022/03/07 03:38:27;;;;;;;11.10;3.42;;;;;;;-1.65;84.15;102866.75;5012937;28;20041;-66
2022/03/07 03:40:53;;;;;;;6.03;2.90;;;;;;;-1.67;84.17;102871.94;5024720;28;20098;-66
2022/03/07 03:43:18;;;;;;;4.45;3.05;;;;;;;-1.70;84.04;102870.94;5018553;28;20124;-66
2022/03/07 03:45:44;;;;;;;9.30;3.00;;;;;;;-1.71;84.29;102871.72;5024450;28;20041;-66
2022/03/07 03:48:09;;;;;;;8.73;3.28;;;;;;;-1.74;84.06;102866.44;5024345;28;20025;-66
2022/03/07 03:50:35;;;;;;;5.43;3.17;;;;;;;-1.75;84.00;102872.44;5024471;28;20120;-66
2022/03/07 03:53:00;;;;;;;6.18;3.10;;;;;;;-1.77;84.15;102862.00;5023779;28;20033;-66
2022/03/07 03:55:26;;;;;;;10.77;3.90;;;;;;;-1.77;84.37;102869.78;5023582;28;20036;-66
2022/03/07 03:57:51;;;;;;;4.90;3.00;;;;;;;-1.80;84.34;102867.94;5023471;28;20151;-66
2022/03/07 04:00:18;;;;;;;8.07;3.22;;;;;;;-1.81;84.20;102873.06;5024648;28;20673;-66
2022/03/07 04:02:44;;;;;;;6.60;3.10;;;;;;;-1.82;84.28;102868.72;5022196;28;20300;-66
2022/03/07 04:05:11;;;;;;;6.53;3.50;;;;;;;-1.84;84.27;102875.56;5022904;28;20041;-67
2022/03/07 04:07:38;;;;;;;4.60;2.92;;;;;;;-1.85;84.16;102868.59;5024409;28;20133;-66
2022/03/07 04:10:05;;;;;;;7.05;3.22;;;;;;;-1.87;84.46;102860.75;5025075;28;20679;-66
2022/03/07 04:12:30;;;;;;;4.22;3.00;;;;;;;-1.88;84.25;102861.59;5023049;28;20650;-66
2022/03/07 04:14:56;;;;;;;4.60;2.60;;;;;;;-1.89;84.46;102869.31;5024106;28;20025;-66
2022/03/07 04:17:21;;;;;;;9.98;3.08;;;;;;;-1.92;84.32;102872.66;5023482;28;20040;-66
2022/03/07 04:19:47;;;;;;;5.28;2.80;;;;;;;-1.92;84.40;102880.44;5023261;28;20961;-65
2022/03/07 04:22:12;;;;;;;3.15;2.67;;;;;;;-1.93;84.36;102873.50;5022897;28;20037;-66
2022/03/07 04:24:39;;;;;;;6.55;2.97;;;;;;;-1.94;84.46;102874.31;5023839;28;20870;-66
2022/03/07 04:27:05;;;;;;;6.88;2.65;;;;;;;-1.96;84.36;102871.66;5023601;28;20025;-66
2022/03/07 04:29:30;;;;;;;7.18;2.92;;;;;;;-1.97;84.52;102872.50;5023396;28;20392;-66
2022/03/07 04:31:56;;;;;;;5.15;3.03;;;;;;;-1.96;84.28;102873.38;5020294;28;20033;-66
2022/03/07 04:34:22;;;;;;;7.38;3.22;;;;;;;-1.98;84.54;102878.50;5023247;28;20571;-66
2022/03/07 04:36:47;;;;;;;8.75;3.22;;;;;;;-1.98;84.44;102885.41;5023085;28;20084;-66
2022/03/07 04:39:13;;;;;;;5.72;2.95;;;;;;;-1.99;84.46;102891.44;5023912;28;20307;-66
2022/03/07 04:41:39;;;;;;;8.48;3.08;;;;;;;-2.00;84.45;102889.66;5022655;28;20300;-66
2022/03/07 04:44:06;;;;;;;4.22;2.72;;;;;;;-2.00;84.32;102884.47;5023061;28;21467;-66
2022/03/07 04:46:31;;;;;;;9.13;3.00;;;;;;;-2.02;84.45;102888.72;5023018;28;20041;-66
2022/03/07 04:48:57;;;;;;;6.15;2.97;;;;;;;-2.03;84.56;102895.59;5022833;28;20455;-66
2022/03/07 04:51:22;;;;;;;6.20;2.85;;;;;;;-2.05;84.37;102892.94;5023116;28;20025;-66
2022/03/07 04:53:48;;;;;;;7.50;2.65;;;;;;;-2.06;84.57;102895.50;5023149;28;20029;-65
2022/03/07 04:56:14;;;;;;;9.75;3.22;;;;;;;-2.08;84.67;102887.66;5022594;28;20125;-65
2022/03/07 04:58:39;;;;;;;4.95;3.00;;;;;;;-2.10;84.62;102889.31;5022630;28;20365;-65
2022/03/07 05:01:05;;;;;;;8.45;3.05;;;;;;;-2.12;84.32;102893.53;5007052;28;20029;-66
2022/03/07 05:03:30;;;;;;;8.07;3.40;;;;;;;-2.14;84.44;102897.78;4999151;28;20193;-65
2022/03/07 05:05:56;;;;;;;9.18;3.60;;;;;;;-2.15;84.66;102898.59;5022253;28;20522;-66
2022/03/07 05:08:22;;;;;;;6.75;3.13;;;;;;;-2.16;84.51;102903.72;5020916;28;20041;-66
2022/03/07 05:10:47;;;;;;;5.47;3.03;;;;;;;-2.19;84.47;102899.28;5021204;28;20040;-65
2022/03/07 05:13:13;;;;;;;3.83;3.05;;;;;;;-2.20;84.71;102907.91;5021223;28;20051;-66
2022/03/07 05:15:38;;;;;;;8.57;3.80;;;;;;;-2.21;84.62;102906.13;5021657;28;20085;-66
2022/03/07 05:18:05;;;;;;;9.45;3.35;;;;;;;-2.21;84.73;102911.34;5022199;28;20519;-65
2022/03/07 05:20:30;;;;;;;8.55;3.90;;;;;;;-2.21;84.92;102919.13;4994353;28;20129;-65
2022/03/07 05:22:56;;;;;;;5.68;3.17;;;;;;;-2.22;84.76;102909.56;5022655;28;20390;-66
2022/03/07 05:25:22;;;;;;;5.47;3.30;;;;;;;-2.22;84.92;102912.16;5004325;28;20025;-66
2022/03/07 05:27:48;;;;;;;9.55;3.35;;;;;;;-2.23;84.79;102907.78;5022004;28;20038;-66
2022/03/07 05:30:17;;;;;;;5.45;2.70;;;;;;;-2.23;84.73;102905.19;5019754;28;20029;-66
2022/03/07 05:32:52;;;;;;;7.30;3.25;;;;;;;-2.25;84.70;102899.03;5021433;28;20029;-66
2022/03/07 05:35:19;;;;;;;7.57;3.22;;;;;;;-2.25;84.97;102904.22;5002446;28;20041;-66
2022/03/07 05:37:45;;;;;;;4.35;3.25;;;;;;;-2.25;84.80;102904.22;5022733;28;20492;-66
2022/03/07 05:40:11;;;;;;;6.18;3.33;;;;;;;-2.27;84.76;102906.78;5021569;28;20036;-66
2022/03/07 05:42:37;;;;;;;5.60;2.92;;;;;;;-2.27;84.64;102904.19;5019612;28;20049;-66
2022/03/07 05:45:05;;;;;;;5.18;3.40;;;;;;;-2.29;84.91;102900.63;5022237;28;20111;-66
2022/03/07 05:47:31;;;;;;;5.25;3.05;;;;;;;-2.30;84.69;102901.44;5021882;28;20032;-66
2022/03/07 05:49:56;;;;;;;5.40;3.42;;;;;;;-2.30;84.77;102903.19;5019737;28;20033;-66
2022/03/07 05:52:22;;;;;;;5.18;2.80;;;;;;;-2.32;84.76;102903.09;5022138;28;20100;-67
2022/03/07 05:54:48;;;;;;;4.85;2.90;;;;;;;-2.33;84.85;102898.75;5019558;28;20523;-66
2022/03/07 05:57:13;;;;;;;6.75;3.03;;;;;;;-2.35;84.86;102903.88;5020541;28;20480;-66
2022/03/07 05:59:39;;;;;;;5.88;3.10;;;;;;;-2.37;84.85;102897.72;5022348;28;20114;-66
2022/03/07 06:02:04;;;;;;;3.97;3.00;;;;;;;-2.37;84.76;102902.94;5021665;28;20501;-66
2022/03/07 06:04:30;;;;;;;4.13;2.70;;;;;;;-2.38;84.87;102908.94;5022119;28;20676;-66
2022/03/07 06:06:55;;;;;;;8.43;3.10;;;;;;;-2.40;84.83;102907.97;5026443;28;20034;-66
2022/03/07 06:09:21;;;;;;;6.13;3.38;;;;;;;-2.41;85.33;102908.78;5021413;28;20041;-66
2022/03/07 06:11:46;;;;;;;7.75;3.40;;;;;;;-2.42;84.97;102912.22;5020832;28;20068;-66
2022/03/07 06:14:12;;;;;;;6.60;3.05;;;;;;;-2.43;84.84;102910.44;5022085;28;20495;-66
2022/03/07 06:16:37;;;;;;;5.05;3.60;;;;;;;-2.46;84.70;102908.59;5021199;28;20091;-66
2022/03/07 06:19:03;;;;;;;9.10;4.45;;;;;;;-2.46;85.03;102910.31;5022450;28;20119;-66
2022/03/07 06:21:28;;;;;;;5.88;3.78;;;;;;;-2.47;85.22;102904.25;5021724;28;20580;-66
2022/03/07 06:23:54;;;;;;;8.95;3.95;;;;;;;-2.47;84.99;102905.94;5021325;28;20472;-66
2022/03/07 06:26:19;;;;;;;9.05;4.28;;;;;;;-2.48;84.95;102911.97;5024869;28;20037;-67
2022/03/07 06:28:45;;;;;;;7.40;3.80;;;;;;;-2.48;85.12;102904.19;5025930;28;20033;-66
2022/03/07 06:31:10;;;;;;;6.22;3.78;;;;;;;-2.47;84.77;102905.94;5030916;28;20044;-67
2022/03/07 06:33:36;;;;;;;5.28;3.95;;;;;;;-2.48;85.13;102910.25;5025459;28;20040;-66
2022/03/07 06:36:04;;;;;;;4.95;4.32;;;;;;;-2.48;85.12;102906.78;5025636;28;20052;-67
2022/03/07 06:38:30;;;;;;;7.32;3.92;;;;;;;-2.47;85.25;102905.94;5024790;28;20104;-66
2022/03/07 06:40:55;;;;;;;7.63;4.32;;;;;;;-2.46;85.24;102911.19;5025500;28;20033;-67
2022/03/07 06:43:21;;;;;;;7.82;4.40;;;;;;;-2.45;85.21;102906.91;5025288;28;20052;-66
2022/03/07 06:45:46;;;;;;;6.45;4.15;;;;;;;-2.43;84.97;102909.56;5024621;28;20507;-66
2022/03/07 06:48:12;;;;;;;14.23;4.78;;;;;;;-2.42;85.04;102911.31;5025024;28;20033;-66
2022/03/07 06:50:38;;;;;;;6.38;4.43;;;;;;;-2.40;85.12;102913.16;5025559;28;20092;-66
2022/03/07 06:53:03;;;;;;;6.95;3.90;;;;;;;-2.38;85.26;102914.13;5025128;28;21481;-66
2022/03/07 06:55:29;;;;;;;6.80;4.25;;;;;;;-2.36;85.40;102912.47;5025707;28;20037;-66
2022/03/07 06:57:55;;;;;;;5.05;4.32;;;;;;;-2.34;85.64;102922.94;5025378;28;20344;-66
2022/03/07 07:00:20;;;;;;;8.30;3.40;;;;;;;-2.30;85.56;102911.84;5025995;28;20523;-67
2022/03/07 07:02:46;;;;;;;4.82;3.63;;;;;;;-2.28;85.43;102914.50;5024268;28;20397;-66
2022/03/07 07:05:13;;;;;;;7.28;3.97;;;;;;;-2.25;85.76;102919.81;5025576;28;20040;-66
2022/03/07 07:07:39;;;;;;;6.40;4.15;;;;;;;-2.22;85.60;102932.94;5024596;28;20182;-66
2022/03/07 07:10:06;;;;;;;9.65;4.60;;;;;;;-2.20;85.34;102934.75;5024621;28;20025;-66
2022/03/07 07:12:34;;;;;;;6.82;4.85;;;;;;;-2.16;85.63;102930.59;5025316;28;20033;-66
2022/03/07 07:14:59;;;;;;;8.93;4.85;;;;;;;-2.13;85.69;102922.03;5024480;28;20495;-66
2022/03/07 07:17:25;;;;;;;6.20;4.20;;;;;;;-2.10;85.62;102928.25;5024919;28;20037;-66
2022/03/07 07:19:50;;;;;;;7.97;4.43;;;;;;;-2.08;85.79;102921.41;5024665;28;20408;-67
2022/03/07 07:22:16;;;;;;;6.30;4.25;;;;;;;-2.03;85.71;102925.91;5024649;28;20033;-67
2022/03/07 07:24:42;;;;;;;5.60;4.40;;;;;;;-2.02;85.61;102920.75;5023945;28;20044;-66
2022/03/07 07:27:08;;;;;;;7.88;4.35;;;;;;;-1.98;85.84;102925.25;5024166;28;20037;-67
2022/03/07 07:29:33;;;;;;;6.40;4.22;;;;;;;-1.95;85.69;102925.34;5025345;28;20541;-66
2022/03/07 07:31:59;;;;;;;6.57;4.60;;;;;;;-1.91;85.46;102926.38;5023831;28;20044;-66
2022/03/07 07:34:25;;;;;;;6.32;4.10;;;;;;;-1.86;85.80;102935.22;5023841;28;20033;-66
2022/03/07 07:36:51;;;;;;;6.53;4.20;;;;;;;-1.82;85.98;102937.13;5023729;28;20857;-66
2022/03/07 07:39:17;;;;;;;6.93;4.28;;;;;;;-1.76;85.82;102940.81;5024236;28;20116;-67
2022/03/07 07:41:42;;;;;;;9.63;4.53;;;;;;;-1.73;85.81;102939.22;5022511;28;20033;-66
2022/03/07 07:44:08;;;;;;;9.68;4.55;;;;;;;-1.68;85.90;102934.19;5024067;28;20049;-67
2022/03/07 07:46:33;;;;;;;8.00;4.70;;;;;;;-1.62;86.15;102941.34;5024667;28;20510;-67
2022/03/07 07:48:59;;;;;;;7.97;5.13;;;;;;;-1.59;86.20;102939.75;5024143;28;20606;-67
2022/03/07 07:51:25;;;;;;;7.35;5.25;;;;;;;-1.51;86.29;102937.47;5024217;28;20472;-67
2022/03/07 07:53:50;;;;;;;8.05;5.30;;;;;;;-1.44;86.41;102938.56;5023243;28;20037;-67
2022/03/07 07:56:16;;;;;;;12.52;6.10;;;;;;;-1.39;86.63;102939.63;5023612;28;20512;-67
2022/03/07 07:58:42;;;;;;;20.17;7.97;;;;;;;-1.31;86.73;102937.34;5023144;28;20387;-67
2022/03/07 08:01:07;;;;;;;19.05;8.50;;;;;;;-1.23;86.69;102938.50;5023420;28;20028;-66
2022/03/07 08:03:33;;;;;;;21.33;10.25;;;;;;;-1.15;87.08;102938.78;5023468;28;20044;-66
2022/03/07 08:05:59;;;;;;;16.92;10.07;;;;;;;-1.06;87.31;102939.13;5023439;28;20410;-66
2022/03/07 08:08:24;;;;;;;16.45;10.63;;;;;;;-0.94;87.50;102940.41;5022515;28;20849;-66
2022/03/07 08:10:50;;;;;;;17.00;11.63;;;;;;;-0.80;87.97;102938.28;5021985;28;20033;-66
2022/03/07 08:13:16;;;;;;;20.10;12.70;;;;;;;-0.70;88.09;102935.19;5023650;28;20055;-66
2022/03/07 08:15:41;;;;;;;19.67;12.00;;;;;;;-0.61;87.99;102935.50;5023747;28;20059;-66
2022/03/07 08:18:07;;;;;;;21.48;12.98;;;;;;;-0.53;88.19;102941.00;5023522;28;20364;-67
2022/03/07 08:20:34;;;;;;;19.40;12.25;;;;;;;-0.45;88.32;102936.03;5021578;28;20029;-67
2022/03/07 08:22:59;;;;;;;24.77;13.13;;;;;;;-0.35;88.34;102929.41;5023323;28;20534;-67
2022/03/07 08:25:26;;;;;;;20.05;12.73;;;;;;;-0.25;88.58;102934.09;5004664;28;20033;-68
2022/03/07 08:27:52;;;;;;;18.60;13.02;;;;;;;-0.16;89.01;102929.19;5005478;28;20028;-67
2022/03/07 08:30:20;;;;;;;23.40;13.32;;;;;;;-0.08;88.75;102932.06;5021215;28;20369;-67
2022/03/07 08:32:46;;;;;;;20.98;12.27;;;;;;;0.02;88.84;102938.44;5022189;28;20106;-67
2022/03/07 08:35:13;;;;;;;20.90;12.05;;;;;;;0.12;89.12;102937.91;5023030;28;20465;-67
2022/03/07 08:37:38;;;;;;;21.67;12.95;;;;;;;0.26;89.63;102937.44;5023361;28;20029;-66
2022/03/07 08:40:09;;;;;;;23.20;13.18;;;;;;;0.39;89.65;102938.72;5022429;28;21383;-67
2022/03/07 08:42:37;;;;;;;21.83;12.55;;;;;;;0.49;89.77;102934.69;4993014;28;20075;-67
2022/03/07 08:45:03;;;;;;;19.65;12.52;;;;;;;0.62;90.00;102941.13;5021796;28;20075;-66
2022/03/07 08:47:29;;;;;;;18.58;13.23;;;;;;;0.72;90.09;102937.09;5021757;28;20479;-67
2022/03/07 08:49:56;;;;;;;24.13;13.23;;;;;;;0.83;89.95;102937.38;5023091;28;20036;-67
2022/03/07 08:52:21;;;;;;;22.30;12.60;;;;;;;0.92;90.28;102942.84;5020841;28;20044;-67
2022/03/07 08:54:47;;;;;;;23.08;13.15;;;;;;;1.00;90.30;102937.88;5022771;28;20034;-67
2022/03/07 08:57:13;;;;;;;22.25;12.82;;;;;;;1.07;90.29;102934.59;5023266;28;20037;-68
2022/03/07 08:59:39;;;;;;;20.58;12.18;;;;;;;1.16;90.66;102934.88;5022485;28;20107;-68
2022/03/07 09:02:05;;;;;;;20.17;12.52;;;;;;;1.24;90.42;102932.44;5020928;28;20475;-68
2022/03/07 09:04:31;;;;;;;25.00;12.88;;;;;;;1.32;90.71;102930.91;5018873;28;20116;-68
2022/03/07 09:06:57;;;;;;;18.77;11.57;;;;;;;1.42;90.82;102933.78;5020925;28;20138;-68
2022/03/07 09:09:22;;;;;;;19.38;10.52;;;;;;;1.49;91.04;102933.97;5022678;28;20176;-68
2022/03/07 09:11:48;;;;;;;18.77;10.50;;;;;;;1.58;91.08;102937.69;5022425;28;20567;-68
2022/03/07 09:14:14;;;;;;;19.45;9.70;;;;;;;1.65;91.18;102938.72;5019717;28;20039;-68
2022/03/07 09:16:41;;;;;;;16.38;9.60;;;;;;;1.73;91.17;102932.84;5024032;28;20053;-68
2022/03/07 09:19:06;;;;;;;14.98;9.25;;;;;;;1.82;91.11;102931.31;5019720;28;20033;-68
2022/03/07 09:21:32;;;;;;;17.40;9.02;;;;;;;1.88;91.11;102932.34;5020852;28;20626;-69
2022/03/07 09:23:58;;;;;;;16.23;8.40;;;;;;;1.94;91.12;102926.38;5022619;28;20281;-68
2022/03/07 09:26:24;;;;;;;12.93;7.38;;;;;;;1.99;90.96;102927.38;5020607;28;20268;-68
2022/03/07 09:28:50;;;;;;;14.02;7.57;;;;;;;2.03;90.91;102923.13;5016812;28;20021;-68
2022/03/07 09:31:15;;;;;;;10.85;6.00;;;;;;;2.09;90.59;102924.97;5021184;28;20392;-68
2022/03/07 09:33:41;;;;;;;11.50;6.82;;;;;;;2.14;91.02;102928.59;5020818;28;20500;-68
2022/03/07 09:36:06;;;;;;;10.23;6.20;;;;;;;2.17;90.91;102919.09;5022606;28;20068;-69
2022/03/07 09:38:35;;;;;;;10.57;6.40;;;;;;;2.23;90.79;102922.69;5020941;28;20458;-68
2022/03/07 09:41:01;;;;;;;14.45;6.40;;;;;;;2.26;90.66;102921.03;5022495;28;20451;-68
2022/03/07 09:43:27;;;;;;;9.60;6.45;;;;;;;2.30;90.59;102928.09;5019789;28;20072;-68
2022/03/07 09:45:52;;;;;;;8.20;5.70;;;;;;;2.34;90.66;102925.56;5020362;28;20467;-68
2022/03/07 09:48:21;;;;;;;10.57;6.88;;;;;;;2.38;90.80;102927.38;5022149;28;20114;-68
2022/03/07 09:50:46;;;;;;;11.20;6.60;;;;;;;2.42;90.43;102927.50;5020911;28;20033;-69
2022/03/07 09:53:13;;;;;;;11.23;7.13;;;;;;;2.45;90.20;102921.41;5021944;28;20633;-68
2022/03/07 09:55:39;;;;;;;11.88;6.55;;;;;;;2.49;90.30;102925.00;5022490;28;20025;-69
2022/03/07 09:58:06;;;;;;;11.70;7.22;;;;;;;2.53;90.56;102922.50;5021724;28;20566;-68
2022/03/07 10:00:31;;;;;;;12.88;6.72;;;;;;;2.57;90.37;102923.44;5025218;28;20172;-68
2022/03/07 10:02:59;;;;;;;10.02;6.63;;;;;;;2.63;90.18;102915.72;5025622;28;20592;-68
2022/03/07 10:05:29;;;;;;;16.20;7.18;;;;;;;2.66;90.18;102914.91;5024840;28;20029;-68
2022/03/07 10:07:55;;;;;;;11.38;6.15;;;;;;;2.71;90.27;102905.41;5026582;28;20052;-68
2022/03/07 10:10:21;;;;;;;9.60;6.10;;;;;;;2.77;89.96;102910.75;5026249;28;20205;-69
2022/03/07 10:12:49;;;;;;;10.63;6.40;;;;;;;2.81;89.54;102911.72;5026016;28;20523;-68
2022/03/07 10:15:20;;;;;;;10.40;6.45;;;;;;;2.85;89.65;102903.09;5040527;28;20033;-68
2022/03/07 10:17:51;;;;;;;9.98;6.05;;;;;;;2.90;89.57;102906.69;5026148;28;20036;-68
2022/03/07 10:20:19;;;;;;;10.85;6.20;;;;;;;2.94;89.40;102905.88;5025812;28;20037;-68
2022/03/07 10:22:50;;;;;;;10.00;6.20;;;;;;;2.98;89.35;102904.19;5026110;28;20060;-68
2022/03/07 10:25:17;;;;;;;14.63;6.70;;;;;;;3.03;89.13;102907.78;5018851;28;20124;-68
2022/03/07 10:27:46;;;;;;;13.90;6.55;;;;;;;3.06;89.07;102902.59;5024770;28;20025;-68
2022/03/07 10:30:17;;;;;;;10.80;6.43;;;;;;;3.10;88.83;102893.97;5025374;28;20030;-68
2022/03/07 10:32:43;;;;;;;11.68;5.80;;;;;;;3.14;88.67;102889.66;5025429;28;20080;-68
2022/03/07 10:35:30;;;;;;;10.98;6.18;;;;;;;3.19;88.82;102895.88;5002582;28;20144;-68
2022/03/07 10:38:10;;;;;;;13.32;6.63;;;;;;;3.24;88.54;102890.72;5025839;28;20471;-69
2022/03/07 10:40:39;;;;;;;8.70;6.15;;;;;;;3.28;88.59;102892.56;5007591;28;20087;-68
2022/03/07 10:43:04;;;;;;;9.43;6.55;;;;;;;3.32;88.47;102894.34;5023793;28;20053;-69
2022/03/07 10:45:31;;;;;;;12.00;6.55;;;;;;;3.35;88.60;102883.94;5025093;28;20122;-68
2022/03/07 10:47:59;;;;;;;8.52;6.00;;;;;;;3.38;88.62;102889.22;5024938;28;22051;-69
2022/03/07 10:50:26;;;;;;;9.68;5.65;;;;;;;3.44;88.76;102885.84;5025316;28;20064;-67
2022/03/07 10:52:58;;;;;;;10.95;6.43;;;;;;;3.49;88.07;102891.16;5024470;28;20040;-67
2022/03/07 10:55:30;;;;;;;8.88;6.10;;;;;;;3.53;88.20;102890.34;5025138;28;20037;-68
2022/03/07 10:58:06;;;;;;;10.05;5.93;;;;;;;3.56;87.75;102889.53;5022921;28;20037;-69
2022/03/07 11:00:32;;;;;;;8.73;5.53;;;;;;;3.59;87.77;102884.34;5025650;28;20056;-69
2022/03/07 11:02:57;;;;;;;11.02;6.05;;;;;;;3.60;87.70;102873.88;5025123;28;20555;-69
2022/03/07 11:05:23;;;;;;;9.18;5.78;;;;;;;3.63;87.54;102879.19;5019691;28;20026;-68
2022/03/07 11:07:52;;;;;;;11.63;6.03;;;;;;;3.66;87.73;102873.97;5024483;28;20025;-68
2022/03/07 11:10:18;;;;;;;9.60;6.20;;;;;;;3.71;87.62;102874.03;5024737;28;20074;-67
2022/03/07 11:12:44;;;;;;;11.38;5.85;;;;;;;3.74;87.37;102866.25;5019034;28;20115;-68
2022/03/07 11:15:12;;;;;;;10.52;5.80;;;;;;;3.77;87.02;102875.91;5024347;28;20032;-68
2022/03/07 11:17:43;;;;;;;11.77;5.50;;;;;;;3.83;86.82;102868.13;5024484;28;20067;-68
2022/03/07 11:20:13;;;;;;;8.23;5.18;;;;;;;3.85;87.15;102862.91;5029266;28;20036;-68